createdAt,value
2019-03-28T00:00:57.234Z,33.60
2019-03-28T00:03:25.674Z,36.07
2019-03-28T00:05:54.125Z,26.77
2019-03-28T00:08:22.573Z,28.33
2019-03-28T00:10:51.106Z,37.27
2019-03-28T00:13:19.551Z,30.90
2019-03-28T00:15:49.398Z,44.27
2019-03-28T00:18:17.875Z,28.40
2019-03-28T00:20:46.358Z,44.17
2019-03-28T00:23:16.479Z,30.73
2019-03-28T00:25:44.921Z,52.37
2019-03-28T00:28:13.423Z,29.67
2019-03-28T00:30:42.324Z,41.80
2019-03-28T00:33:10.763Z,32.80
2019-03-28T00:35:39.210Z,34.93
2019-03-28T00:38:07.665Z,34.93
2019-03-28T00:40:36.102Z,39.07
2019-03-28T00:43:04.545Z,44.57
2019-03-28T00:45:33.171Z,37.73
2019-03-28T00:48:01.609Z,39.73
2019-03-28T00:50:32.916Z,34.07
2019-03-28T00:53:00.240Z,36.30
2019-03-28T00:55:28.672Z,42.40
2019-03-28T00:57:57.109Z,37.20
2019-03-28T01:00:25.872Z,31.27
2019-03-28T01:02:54.335Z,43.13
2019-03-28T01:05:22.761Z,39.37
2019-03-28T01:07:51.333Z,45.57
2019-03-28T01:10:19.761Z,39.90
2019-03-28T01:12:48.217Z,31.97
2019-03-28T01:15:16.741Z,41.47
2019-03-28T01:17:45.460Z,38.47
2019-03-28T01:20:14.306Z,36.43
2019-03-28T01:22:42.847Z,29.33
2019-03-28T01:25:11.921Z,40.37
2019-03-28T01:27:40.361Z,31.93
2019-03-28T01:30:09.553Z,37.03
2019-03-28T01:32:37.988Z,37.87
2019-03-28T01:35:06.653Z,55.27
2019-03-28T01:37:35.089Z,30.40
2019-03-28T01:40:04.337Z,48.97
2019-03-28T01:42:32.789Z,30.20
2019-03-28T01:45:01.223Z,37.30
2019-03-28T01:47:29.676Z,44.13
2019-03-28T01:49:58.312Z,53.00
2019-03-28T01:52:26.804Z,39.70
2019-03-28T01:54:55.313Z,47.33
2019-03-28T01:57:24.106Z,33.67
2019-03-28T01:59:52.549Z,41.57
2019-03-28T02:02:21.527Z,37.87
2019-03-28T02:04:49.961Z,40.00
2019-03-28T02:07:18.440Z,35.43
2019-03-28T02:09:46.914Z,46.80
2019-03-28T02:12:15.342Z,36.70
2019-03-28T02:14:43.791Z,40.13
2019-03-28T02:17:12.312Z,32.70
2019-03-28T02:19:41.055Z,41.10
2019-03-28T02:22:09.497Z,42.97
2019-03-28T02:24:37.963Z,36.90
2019-03-28T02:27:06.580Z,37.60
2019-03-28T02:29:35.049Z,40.10
2019-03-28T02:32:03.531Z,36.23
2019-03-28T02:34:31.960Z,49.97
2019-03-28T02:37:00.417Z,43.80
2019-03-28T02:39:28.836Z,31.33
2019-03-28T02:41:57.273Z,31.73
2019-03-28T02:44:25.704Z,52.33
2019-03-28T02:46:54.129Z,36.80
2019-03-28T02:49:22.644Z,51.70
2019-03-28T02:51:51.078Z,44.63
2019-03-28T02:54:19.523Z,49.20
2019-03-28T02:56:47.961Z,43.27
2019-03-28T02:59:16.414Z,49.80
2019-03-28T03:01:45.032Z,37.50
2019-03-28T03:04:13.560Z,30.93
2019-03-28T03:06:42.006Z,42.63
2019-03-28T03:09:10.433Z,35.57
2019-03-28T03:11:42.611Z,46.53
2019-03-28T03:14:09.050Z,47.93
2019-03-28T03:16:37.479Z,40.37
2019-03-28T03:19:05.916Z,49.90
2019-03-28T03:21:35.913Z,41.47
2019-03-28T03:24:04.956Z,45.40
2019-03-28T03:26:33.819Z,32.00
2019-03-28T03:29:02.242Z,33.87
2019-03-28T03:31:30.683Z,29.97
2019-03-28T03:33:59.114Z,37.87
2019-03-28T03:36:29.875Z,44.80
2019-03-28T03:38:58.336Z,36.70
2019-03-28T03:41:26.793Z,38.37
2019-03-28T03:43:55.221Z,47.27
2019-03-28T03:46:24.908Z,39.40
2019-03-28T03:48:54.798Z,45.27
2019-03-28T03:51:23.259Z,48.17
2019-03-28T03:53:51.674Z,44.00
2019-03-28T03:56:20.121Z,38.67
2019-03-28T03:58:48.558Z,45.03
2019-03-28T04:01:17.020Z,40.27
2019-03-28T04:03:45.515Z,44.23
2019-03-28T04:06:14.058Z,41.60
2019-03-28T04:08:42.491Z,50.07
2019-03-28T04:11:10.930Z,50.47
2019-03-28T04:13:39.517Z,44.37
2019-03-28T04:16:07.979Z,41.73
2019-03-28T04:18:36.416Z,55.57
2019-03-28T04:21:04.929Z,55.23
2019-03-28T04:23:33.378Z,48.87
2019-03-28T04:26:01.894Z,47.87
2019-03-28T04:28:32.800Z,51.60
2019-03-28T04:31:01.322Z,53.83
2019-03-28T04:33:29.898Z,50.20
2019-03-28T04:35:58.337Z,52.27
2019-03-28T04:38:26.781Z,73.60
2019-03-28T04:40:55.231Z,56.50
2019-03-28T04:43:23.658Z,43.70
2019-03-28T04:45:52.076Z,56.47
2019-03-28T04:48:20.510Z,67.07
2019-03-28T04:50:49.116Z,53.33
2019-03-28T04:53:17.557Z,61.90
2019-03-28T04:55:45.992Z,47.80
2019-03-28T04:58:14.608Z,63.60
2019-03-28T05:00:43.049Z,61.07
2019-03-28T05:03:11.505Z,58.40
2019-03-28T05:05:39.938Z,46.60
2019-03-28T05:08:08.427Z,50.63
2019-03-28T05:10:37.400Z,59.93
2019-03-28T05:13:05.836Z,58.93
2019-03-28T05:15:34.271Z,62.70
2019-03-28T05:18:02.696Z,55.70
2019-03-28T05:20:31.134Z,59.90
2019-03-28T05:22:59.603Z,68.00
2019-03-28T05:25:28.093Z,68.13
2019-03-28T05:27:59.330Z,74.47
2019-03-28T05:30:27.996Z,59.97
2019-03-28T05:32:56.456Z,63.00
2019-03-28T05:35:24.883Z,56.90
2019-03-28T05:37:53.324Z,54.87
2019-03-28T05:40:22.954Z,62.67
2019-03-28T05:42:51.670Z,60.70
2019-03-28T05:45:20.176Z,56.33
2019-03-28T05:47:48.638Z,55.10
2019-03-28T05:50:17.074Z,49.17
2019-03-28T05:52:45.841Z,59.07
2019-03-28T05:55:14.289Z,61.13
2019-03-28T05:57:42.715Z,60.27
2019-03-28T06:00:11.693Z,57.80
2019-03-28T06:02:40.361Z,56.67
2019-03-28T06:05:08.805Z,60.60
2019-03-28T06:07:38.753Z,57.37
2019-03-28T06:10:09.110Z,65.03
2019-03-28T06:12:37.755Z,54.90
2019-03-28T06:15:08.312Z,55.60
2019-03-28T06:17:36.831Z,53.87
2019-03-28T06:20:08.466Z,50.53
2019-03-28T06:22:36.905Z,60.07
2019-03-28T06:25:06.091Z,47.20
2019-03-28T06:27:34.817Z,40.63
2019-03-28T06:30:04.125Z,50.73
2019-03-28T06:32:42.265Z,63.17
2019-03-28T06:35:02.708Z,52.27
2019-03-28T06:37:31.169Z,46.47
2019-03-28T06:40:00.495Z,49.97
2019-03-28T06:42:28.999Z,31.57
2019-03-28T06:44:57.464Z,43.23
2019-03-28T06:47:25.890Z,54.77
2019-03-28T06:49:54.328Z,57.37
2019-03-28T06:52:22.758Z,53.23
2019-03-28T06:54:51.251Z,51.20
2019-03-28T06:57:19.764Z,44.63
2019-03-28T06:59:48.277Z,51.60
2019-03-28T07:02:17.335Z,42.20
2019-03-28T07:04:46.008Z,65.37
2019-03-28T07:07:14.430Z,42.53
2019-03-28T07:09:42.896Z,72.73
2019-03-28T07:12:11.317Z,50.03
2019-03-28T07:14:39.745Z,44.57
2019-03-28T07:17:08.206Z,54.50
2019-03-28T07:19:36.627Z,49.93
2019-03-28T07:22:05.061Z,53.67
2019-03-28T07:24:33.480Z,64.27
2019-03-28T07:27:01.939Z,64.13
2019-03-28T07:29:30.371Z,51.30
2019-03-28T07:31:58.877Z,46.90
2019-03-28T07:34:27.313Z,59.90
2019-03-28T07:36:55.765Z,69.10
2019-03-28T07:39:24.187Z,45.93
2019-03-28T07:41:52.624Z,42.17
2019-03-28T07:44:21.120Z,53.03
2019-03-28T07:46:49.599Z,54.77
2019-03-28T07:49:18.110Z,52.77
2019-03-28T07:51:46.737Z,46.50
2019-03-28T07:54:15.169Z,61.10
2019-03-28T07:56:43.609Z,50.23
2019-03-28T07:59:12.043Z,48.77
2019-03-28T08:01:40.481Z,44.07
2019-03-28T08:04:12.112Z,49.23
2019-03-28T08:06:49.046Z,45.97
2019-03-28T08:09:10.306Z,33.03
2019-03-28T08:11:39.002Z,46.77
2019-03-28T08:14:07.631Z,43.73
2019-03-28T08:16:36.069Z,45.50
2019-03-28T08:19:07.806Z,49.60
2019-03-28T08:21:34.839Z,52.10
2019-03-28T08:24:03.306Z,40.40
2019-03-28T08:26:31.729Z,43.37
2019-03-28T08:29:00.178Z,45.40
2019-03-28T08:31:28.602Z,52.63
2019-03-28T08:33:57.042Z,50.37
2019-03-28T08:36:26.705Z,41.10
2019-03-28T08:38:55.820Z,47.63
2019-03-28T08:41:24.305Z,48.40
2019-03-28T08:43:52.763Z,46.47
2019-03-28T08:46:21.193Z,45.03
2019-03-28T08:48:49.639Z,43.97
2019-03-28T08:51:18.136Z,47.43
2019-03-28T08:53:46.581Z,45.97
2019-03-28T08:56:15.006Z,52.97
2019-03-28T08:58:43.461Z,45.50
2019-03-28T09:01:11.896Z,42.00
2019-03-28T09:03:40.349Z,48.27
2019-03-28T09:06:08.780Z,48.70
2019-03-28T09:08:37.243Z,49.13
2019-03-28T09:11:05.669Z,45.90
2019-03-28T09:13:35.648Z,48.03
2019-03-28T09:16:04.166Z,42.10
2019-03-28T09:18:32.920Z,56.67
2019-03-28T09:21:01.421Z,46.87
2019-03-28T09:23:29.864Z,38.50
2019-03-28T09:25:58.287Z,43.63
2019-03-28T09:28:26.733Z,47.57
2019-03-28T09:30:55.346Z,49.50
2019-03-28T09:33:24.168Z,40.30
2019-03-28T09:35:52.740Z,40.83
2019-03-28T09:38:21.417Z,36.63
2019-03-28T09:40:49.862Z,42.33
2019-03-28T09:43:18.376Z,37.00
2019-03-28T09:45:46.841Z,27.90
2019-03-28T09:48:15.293Z,28.50
2019-03-28T09:50:43.781Z,28.63
2019-03-28T09:53:13.925Z,39.60
2019-03-28T09:55:42.352Z,37.80
2019-03-28T09:58:10.964Z,36.90
2019-03-28T10:00:39.389Z,32.63
2019-03-28T10:03:07.963Z,35.30
2019-03-28T10:05:38.047Z,49.77
2019-03-28T10:08:06.558Z,40.23
2019-03-28T10:10:35.030Z,29.13
2019-03-28T10:13:03.628Z,41.70
2019-03-28T10:15:36.803Z,34.50
2019-03-28T10:18:04.468Z,30.10
2019-03-28T10:20:32.898Z,36.47
2019-03-28T10:23:01.340Z,35.93
2019-03-28T10:25:29.774Z,32.40
2019-03-28T10:27:58.991Z,30.07
2019-03-28T10:30:44.393Z,43.30
2019-03-28T10:33:12.845Z,40.27
2019-03-28T10:35:41.296Z,33.60
2019-03-28T10:38:09.970Z,36.10
2019-03-28T10:40:38.511Z,29.17
2019-03-28T10:43:07.208Z,39.43
2019-03-28T10:45:35.656Z,25.33
2019-03-28T10:48:04.821Z,18.20
2019-03-28T10:50:40.819Z,20.90
2019-03-28T10:53:03.570Z,32.10
2019-03-28T10:55:32.025Z,31.43
2019-03-28T10:58:00.454Z,20.43
2019-03-28T11:00:28.900Z,19.03
2019-03-28T11:02:57.624Z,15.90
2019-03-28T11:05:26.119Z,14.83
2019-03-28T11:07:54.563Z,18.17
2019-03-28T11:10:22.994Z,19.00
2019-03-28T11:12:51.431Z,23.07
2019-03-28T11:15:19.873Z,15.63
2019-03-28T11:17:48.383Z,21.40
2019-03-28T11:20:16.902Z,21.80
2019-03-28T11:22:45.510Z,16.83
2019-03-28T11:25:14.613Z,13.00
2019-03-28T11:27:43.053Z,16.43
2019-03-28T11:30:12.839Z,21.03
2019-03-28T11:32:41.262Z,12.37
2019-03-28T11:35:09.978Z,25.07
2019-03-28T11:37:38.489Z,16.23
2019-03-28T11:40:09.247Z,19.10
2019-03-28T11:42:38.064Z,13.33
2019-03-28T11:45:09.341Z,12.60
2019-03-28T11:47:37.656Z,21.63
2019-03-28T11:50:10.300Z,21.57
2019-03-28T11:52:38.728Z,14.60
2019-03-28T11:55:07.709Z,18.00
2019-03-28T11:57:37.297Z,16.57
2019-03-28T12:00:12.033Z,19.07
2019-03-28T12:02:40.476Z,10.80
2019-03-28T12:05:09.820Z,16.50
2019-03-28T12:07:38.253Z,24.97
2019-03-28T12:10:09.770Z,30.33
2019-03-28T12:12:38.212Z,26.17
2019-03-28T12:15:08.965Z,24.93
2019-03-28T12:17:37.401Z,10.30
2019-03-28T12:20:07.801Z,24.87
2019-03-28T12:22:36.416Z,17.40
2019-03-28T12:25:06.674Z,18.23
2019-03-28T12:27:35.098Z,18.27
2019-03-28T12:30:05.577Z,16.10
2019-03-28T12:32:34.098Z,20.80
2019-03-28T12:35:02.539Z,27.13
2019-03-28T12:37:30.986Z,23.63
2019-03-28T12:40:00.059Z,15.90
2019-03-28T12:42:28.957Z,21.67
2019-03-28T12:44:58.299Z,18.33
2019-03-28T12:47:41.299Z,25.17
2019-03-28T12:49:57.670Z,19.30
2019-03-28T12:52:26.112Z,21.73
2019-03-28T12:54:54.747Z,25.30
2019-03-28T12:57:23.551Z,26.13
2019-03-28T12:59:53.604Z,15.43
2019-03-28T13:02:30.033Z,32.47
2019-03-28T13:04:52.360Z,21.50
2019-03-28T13:07:21.005Z,23.70
2019-03-28T13:09:49.766Z,14.87
2019-03-28T13:12:18.257Z,23.83
2019-03-28T13:14:47.726Z,21.70
2019-03-28T13:17:16.567Z,15.63
2019-03-28T13:19:45.117Z,19.03
2019-03-28T13:22:13.569Z,21.43
2019-03-28T13:24:41.984Z,19.43
2019-03-28T13:27:10.421Z,19.20
2019-03-28T13:29:38.852Z,30.07
2019-03-28T13:32:07.478Z,20.03
2019-03-28T13:34:35.942Z,16.30
2019-03-28T13:37:04.383Z,19.83
2019-03-28T13:39:33.769Z,14.70
2019-03-28T13:42:02.254Z,16.57
2019-03-28T13:44:30.682Z,22.50
2019-03-28T13:46:59.127Z,12.57
2019-03-28T13:49:27.550Z,14.43
2019-03-28T13:51:55.984Z,13.87
2019-03-28T13:54:24.421Z,17.47
2019-03-28T13:56:52.872Z,17.53
2019-03-28T13:59:21.296Z,26.23
2019-03-28T14:01:49.732Z,18.27
2019-03-28T14:04:18.172Z,21.07
2019-03-28T14:06:46.610Z,24.80
2019-03-28T14:09:15.056Z,31.07
2019-03-28T14:11:43.502Z,26.00
2019-03-28T14:14:11.969Z,19.97
2019-03-28T14:16:40.458Z,29.27
2019-03-28T14:19:08.925Z,26.63
2019-03-28T14:21:37.352Z,31.33
2019-03-28T14:24:05.861Z,28.37
2019-03-28T14:26:37.420Z,15.57
2019-03-28T14:29:06.899Z,31.83
2019-03-28T14:31:34.644Z,21.50
2019-03-28T14:34:03.130Z,18.33
2019-03-28T14:36:32.852Z,30.00
2019-03-28T14:39:01.511Z,25.83
2019-03-28T14:41:29.947Z,23.57
2019-03-28T14:43:58.386Z,26.67
2019-03-28T14:46:26.820Z,26.93
2019-03-28T14:48:55.282Z,19.87
2019-03-28T14:51:23.765Z,29.93
2019-03-28T14:53:52.201Z,20.77
2019-03-28T14:56:21.070Z,25.30
2019-03-28T14:58:50.662Z,20.40
2019-03-28T15:01:20.632Z,24.63
2019-03-28T15:03:49.071Z,30.63
2019-03-28T15:06:17.506Z,20.47
2019-03-28T15:08:46.024Z,22.83
2019-03-28T15:11:15.835Z,30.97
2019-03-28T15:13:44.261Z,23.00
2019-03-28T15:16:12.692Z,22.57
2019-03-28T15:18:41.133Z,18.60
2019-03-28T15:21:09.565Z,16.87
2019-03-28T15:23:38.031Z,17.67
2019-03-28T15:26:06.493Z,22.63
2019-03-28T15:28:34.949Z,19.67
2019-03-28T15:31:03.417Z,27.33
2019-03-28T15:33:39.213Z,14.90
2019-03-28T15:36:02.265Z,20.67
2019-03-28T15:38:31.495Z,15.73
2019-03-28T15:41:00.105Z,9.83
2019-03-28T15:43:28.546Z,15.67
2019-03-28T15:45:56.995Z,20.77
2019-03-28T15:48:25.438Z,14.23
2019-03-28T15:50:53.933Z,9.70
2019-03-28T15:53:22.440Z,20.33
2019-03-28T15:55:50.875Z,18.93
2019-03-28T15:58:23.459Z,23.50
2019-03-28T16:00:49.487Z,24.73
2019-03-28T16:03:17.988Z,13.20
2019-03-28T16:05:57.686Z,17.47
2019-03-28T16:08:16.707Z,16.70
2019-03-28T16:10:45.151Z,21.83
2019-03-28T16:13:13.609Z,12.47
2019-03-28T16:15:42.070Z,17.93
2019-03-28T16:18:10.496Z,13.50
2019-03-28T16:20:39.066Z,17.20
2019-03-28T16:23:07.504Z,14.23
2019-03-28T16:25:35.997Z,18.87
2019-03-28T16:28:04.432Z,19.13
2019-03-28T16:30:38.160Z,10.33
2019-03-28T16:33:07.132Z,14.17
2019-03-28T16:35:35.577Z,23.53
2019-03-28T16:38:04.286Z,16.30
2019-03-28T16:40:32.745Z,18.20
2019-03-28T16:43:01.178Z,18.50
2019-03-28T16:45:29.615Z,12.80
2019-03-28T16:47:58.412Z,16.03
2019-03-28T16:50:27.118Z,10.60
2019-03-28T16:52:55.632Z,15.57
2019-03-28T16:55:26.452Z,19.57
2019-03-28T16:57:54.214Z,23.50
2019-03-28T17:00:25.764Z,20.53
2019-03-28T17:02:54.192Z,17.43
2019-03-28T17:05:22.631Z,12.23
2019-03-28T17:07:51.703Z,14.83
2019-03-28T17:10:35.725Z,16.87
2019-03-28T17:13:04.214Z,16.80
2019-03-28T17:15:32.645Z,18.13
2019-03-28T17:18:01.248Z,12.00
2019-03-28T17:20:29.747Z,29.10
2019-03-28T17:22:58.247Z,19.00
2019-03-28T17:25:27.550Z,24.07
2019-03-28T17:27:55.989Z,16.93
2019-03-28T17:30:24.420Z,13.50
2019-03-28T17:32:52.856Z,17.87
2019-03-28T17:35:21.284Z,18.33
2019-03-28T17:37:49.732Z,17.90
2019-03-28T17:40:18.231Z,12.23
2019-03-28T17:42:47.999Z,14.30
2019-03-28T17:45:16.854Z,16.10
2019-03-28T17:47:45.381Z,10.33
2019-03-28T17:50:15.440Z,15.80
2019-03-28T17:52:43.889Z,9.63
2019-03-28T17:55:12.761Z,13.87
2019-03-28T17:57:42.947Z,13.70
2019-03-28T18:00:12.980Z,13.20
2019-03-28T18:02:41.611Z,8.73
2019-03-28T18:05:12.874Z,26.13
2019-03-28T18:07:40.773Z,10.00
2019-03-28T18:10:09.938Z,14.00
2019-03-28T18:12:39.041Z,22.40
2019-03-28T18:15:08.464Z,18.67
2019-03-28T18:17:36.914Z,11.03
2019-03-28T18:20:07.349Z,14.83
2019-03-28T18:22:35.858Z,13.53
2019-03-28T18:25:07.795Z,7.33
2019-03-28T18:27:37.286Z,16.97
2019-03-28T18:30:07.223Z,12.17
2019-03-28T18:32:39.003Z,14.70
2019-03-28T18:35:08.271Z,8.13
2019-03-28T18:37:36.984Z,22.50
2019-03-28T18:40:08.543Z,18.05
2019-03-28T18:42:37.147Z,13.13
2019-03-28T18:45:08.906Z,11.93
2019-03-28T18:47:37.329Z,10.97
2019-03-28T18:50:08.114Z,14.47
2019-03-28T18:52:37.902Z,20.37
2019-03-28T18:55:07.389Z,11.00
2019-03-28T18:57:35.830Z,17.90
2019-03-28T19:00:07.186Z,18.13
2019-03-28T19:02:37.631Z,10.00
2019-03-28T19:05:19.076Z,16.87
2019-03-28T19:07:38.147Z,10.87
2019-03-28T19:10:07.844Z,16.30
2019-03-28T19:12:36.323Z,12.23
2019-03-28T19:15:07.039Z,10.83
2019-03-28T19:17:35.950Z,26.77
2019-03-28T19:20:09.853Z,13.60
2019-03-28T19:22:38.612Z,19.23
2019-03-28T19:25:08.903Z,31.07
2019-03-28T19:27:38.096Z,22.97
2019-03-28T19:30:07.998Z,16.97
2019-03-28T19:32:36.508Z,16.50
2019-03-28T19:35:07.536Z,25.50
2019-03-28T19:37:39.945Z,20.20
2019-03-28T19:40:10.290Z,13.60
2019-03-28T19:42:40.641Z,15.67
2019-03-28T19:45:10.222Z,17.37
2019-03-28T19:47:38.657Z,31.30
2019-03-28T19:50:08.265Z,19.73
2019-03-28T19:52:38.278Z,11.37
2019-03-28T19:55:07.513Z,18.37
2019-03-28T19:57:36.182Z,15.00
2019-03-28T20:00:06.777Z,12.93
2019-03-28T20:02:36.081Z,14.23
2019-03-28T20:05:07.161Z,15.53
2019-03-28T20:07:35.585Z,24.30
2019-03-28T20:10:15.738Z,18.63
2019-03-28T20:12:36.196Z,17.40
2019-03-28T20:15:08.080Z,25.80
2019-03-28T20:17:37.005Z,18.37
2019-03-28T20:20:06.577Z,16.60
2019-03-28T20:22:35.030Z,27.07
2019-03-28T20:25:04.893Z,23.83
2019-03-28T20:27:33.631Z,25.83
2019-03-28T20:30:02.183Z,22.03
2019-03-28T20:32:30.673Z,22.73
2019-03-28T20:34:59.123Z,28.33
2019-03-28T20:37:27.607Z,23.60
2019-03-28T20:39:56.087Z,15.83
2019-03-28T20:42:24.574Z,18.73
2019-03-28T20:44:53.034Z,20.57
2019-03-28T20:47:21.501Z,24.93
2019-03-28T20:49:49.932Z,23.10
2019-03-28T20:52:19.155Z,22.40
2019-03-28T20:54:48.032Z,24.07
2019-03-28T20:57:17.908Z,20.13
2019-03-28T20:59:47.029Z,19.00
2019-03-28T21:02:16.514Z,18.97
2019-03-28T21:04:44.958Z,19.60
2019-03-28T21:07:15.354Z,17.70
2019-03-28T21:09:43.782Z,25.33
2019-03-28T21:12:12.225Z,21.57
2019-03-28T21:14:40.716Z,20.13
2019-03-28T21:17:09.174Z,16.60
2019-03-28T21:19:37.588Z,21.27
2019-03-28T21:22:07.323Z,24.90
2019-03-28T21:24:37.010Z,32.00
2019-03-28T21:27:05.462Z,30.53
2019-03-28T21:29:34.136Z,16.57
2019-03-28T21:32:02.828Z,17.23
2019-03-28T21:34:31.328Z,19.03
2019-03-28T21:36:59.753Z,17.07
2019-03-28T21:39:28.194Z,34.47
2019-03-28T21:41:57.518Z,28.93
2019-03-28T21:44:25.964Z,16.73
2019-03-28T21:46:54.878Z,24.77
2019-03-28T21:49:23.742Z,17.73
2019-03-28T21:51:52.835Z,32.83
2019-03-28T21:54:21.281Z,24.67
2019-03-28T21:56:50.066Z,16.73
2019-03-28T21:59:18.932Z,25.63
2019-03-28T22:01:47.363Z,17.10
2019-03-28T22:04:15.808Z,18.80
2019-03-28T22:06:44.249Z,15.93
2019-03-28T22:09:12.684Z,22.20
2019-03-28T22:11:41.113Z,19.77
2019-03-28T22:14:09.557Z,19.83
2019-03-28T22:16:38.098Z,19.30
2019-03-28T22:19:06.607Z,21.43
2019-03-28T22:21:36.684Z,17.23
2019-03-28T22:24:06.232Z,28.90
2019-03-28T22:26:34.755Z,20.90
2019-03-28T22:29:03.341Z,17.87
2019-03-28T22:31:31.773Z,23.97
2019-03-28T22:34:00.364Z,19.70
2019-03-28T22:36:28.807Z,23.27
2019-03-28T22:38:57.248Z,25.80
2019-03-28T22:41:25.800Z,17.23
2019-03-28T22:43:54.245Z,28.13
2019-03-28T22:46:22.668Z,14.93
2019-03-28T22:48:52.333Z,19.37
2019-03-28T22:51:20.784Z,14.07
2019-03-28T22:53:50.521Z,24.93
2019-03-28T22:56:18.944Z,17.93
2019-03-28T22:58:47.393Z,20.80
2019-03-28T23:01:16.365Z,16.63
2019-03-28T23:03:44.800Z,19.97
2019-03-28T23:06:13.501Z,21.70
2019-03-28T23:08:41.933Z,21.80
2019-03-28T23:11:10.378Z,14.33
2019-03-28T23:13:38.805Z,27.47
2019-03-28T23:16:07.252Z,27.87
2019-03-28T23:18:35.680Z,18.97
2019-03-28T23:21:04.356Z,22.27
2019-03-28T23:23:32.818Z,18.03
2019-03-28T23:26:01.262Z,17.10
2019-03-28T23:28:29.765Z,24.70
2019-03-28T23:31:00.513Z,20.93
2019-03-28T23:33:28.936Z,22.27
2019-03-28T23:35:57.371Z,17.53
2019-03-28T23:38:25.798Z,20.57
2019-03-28T23:40:54.274Z,24.10
2019-03-28T23:43:22.729Z,21.00
2019-03-28T23:45:51.267Z,26.83
2019-03-28T23:48:19.700Z,21.47
2019-03-28T23:50:48.137Z,22.73
2019-03-28T23:53:16.590Z,23.23
2019-03-28T23:55:45.155Z,20.60
2019-03-28T23:58:13.655Z,16.13
